Main page
METAR-TAF:

METAR-TAF

Airports :

Timișoara Traian Vuia International Airport

Timişoara, Romania

latitude: 45-46N, longitude: 021-15E, elevation: 86 m

Current weather observation

The report was made 12 minutes ago, at 11:30 UTC
Wind 10 kt from the East/Southeast
Temperature 14°C
Humidity 94%
Pressure 1013 hPa
Visibility 10 km or more
Few clouds at a height of 400 ft

METAR: LRTR 151130Z 11010KT 9999 FEW004 14/13 Q1013 R11/190095 NOSIG

Time: 13:42 (11:42 UTC)

Forecast

The report was made 42 minutes ago, at 11:00 UTC
Forecast valid from 15 at 12 UTC to 16 at 12 UTC
Wind 10 kt from the East/Southeast
Visibility 10 km or more
no clouds below 1500 m and no cumulonimbus
Temporary
from 15 at 13 UTC to 15 at 16 UTC
Wind 10 kt from the South
Becoming
from 16 at 09 UTC to 16 at 11 UTC
Wind 14 kt from the South

TAF: LRTR 151100Z 1512/1612 11010KT CAVOK TEMPO 1513/1516 17010KT BECMG 1609/1611 18014KT

Weather observations and forecasts of more than 4000 airports (METAR and TAF reports).

The available stations are represented by yellow and red dots on the map.

Hover mouse over dot to see the name of the station.

Then click to see weather observations and forecasts.

To change the map : click on the green buttons with a black cross to zoom in, on the green button with a dash to zoom out, or on the green arrows for adjacent maps.


METAR-TAF: